createdAt,value
2022-10-28T00:02:28.717Z,97.57
2022-10-28T00:05:14.568Z,87.28
2022-10-28T00:08:00.546Z,93.82
2022-10-28T00:10:46.070Z,94.10
2022-10-28T00:13:32.433Z,91.13
2022-10-28T00:16:26.927Z,93.78
2022-10-28T00:19:13.486Z,85.93
2022-10-28T00:21:59.043Z,104.80
2022-10-28T00:24:44.714Z,84.43
2022-10-28T00:27:30.453Z,90.55
2022-10-28T00:30:16.694Z,84.75
2022-10-28T00:33:02.129Z,77.63
2022-10-28T00:35:47.839Z,84.18
2022-10-28T00:38:33.414Z,83.70
2022-10-28T00:41:22.721Z,86.05
2022-10-28T00:44:39.894Z,84.90
2022-10-28T00:47:43.803Z,77.82
2022-10-28T00:50:38.741Z,86.18
2022-10-28T00:53:28.928Z,94.82
2022-10-28T00:56:15.551Z,88.25
2022-10-28T00:59:04.264Z,74.82
2022-10-28T01:01:49.910Z,87.05
2022-10-28T01:04:35.726Z,86.70
2022-10-28T01:07:22.309Z,78.93
2022-10-28T01:10:08.949Z,84.07
2022-10-28T01:13:19.835Z,86.20
2022-10-28T01:16:17.471Z,83.50
2022-10-28T01:19:12.010Z,90.85
2022-10-28T01:22:11.290Z,90.55
2022-10-28T01:25:36.662Z,97.75
2022-10-28T01:28:34.214Z,83.35
2022-10-28T01:31:43.964Z,105.40
2022-10-28T01:34:41.502Z,89.63
2022-10-28T01:37:36.374Z,98.63
2022-10-28T01:40:35.649Z,86.85
2022-10-28T01:43:34.583Z,110.30
2022-10-28T01:46:35.168Z,96.53
2022-10-28T01:49:30.211Z,93.95
2022-10-28T01:52:22.577Z,88.97
2022-10-28T01:55:15.514Z,81.65
2022-10-28T01:58:04.159Z,94.72
2022-10-28T02:00:51.156Z,96.57
2022-10-28T02:03:37.041Z,86.43
2022-10-28T02:06:26.755Z,87.60
2022-10-28T02:09:26.311Z,89.85
2022-10-28T02:12:11.985Z,85.43
2022-10-28T02:15:21.588Z,82.40
2022-10-28T02:18:30.310Z,79.30
2022-10-28T02:21:36.871Z,84.78
2022-10-28T02:24:44.641Z,83.25
2022-10-28T02:27:38.603Z,87.95
2022-10-28T02:30:39.706Z,95.57
2022-10-28T02:33:28.737Z,84.57
2022-10-28T02:36:20.639Z,85.53
2022-10-28T02:39:07.781Z,96.63
2022-10-28T02:42:27.351Z,93.38
2022-10-28T02:45:18.386Z,90.43
2022-10-28T02:48:21.156Z,91.63
2022-10-28T02:51:20.769Z,98.68
2022-10-28T02:54:11.122Z,93.13
2022-10-28T02:57:01.298Z,96.72
2022-10-28T03:00:02.426Z,100.53
2022-10-28T03:02:47.937Z,92.43
2022-10-28T03:05:33.587Z,83.70
2022-10-28T03:08:19.201Z,90.22
2022-10-28T03:11:05.224Z,91.22
2022-10-28T03:13:50.772Z,88.85
2022-10-28T03:16:36.588Z,88.95
2022-10-28T03:19:22.305Z,91.45
2022-10-28T03:22:07.966Z,87.38
2022-10-28T03:24:53.578Z,81.90
2022-10-28T03:27:42.066Z,87.20
2022-10-28T03:30:27.700Z,103.72
2022-10-28T03:33:13.509Z,87.40
2022-10-28T03:35:59.171Z,89.45
2022-10-28T03:38:44.819Z,84.30
2022-10-28T03:41:30.446Z,84.18
2022-10-28T03:44:15.818Z,85.07
2022-10-28T03:47:01.831Z,79.40
2022-10-28T03:49:47.234Z,86.63
2022-10-28T03:52:32.957Z,92.03
2022-10-28T03:55:18.540Z,95.72
2022-10-28T03:58:04.280Z,86.38
2022-10-28T04:00:51.961Z,89.68
2022-10-28T04:03:38.021Z,89.93
2022-10-28T04:06:23.587Z,88.68
2022-10-28T04:09:09.373Z,95.63
2022-10-28T04:11:55.048Z,88.47
2022-10-28T04:14:40.657Z,78.80
2022-10-28T04:17:26.386Z,95.63
2022-10-28T04:20:12.274Z,94.30
2022-10-28T04:22:58.607Z,94.45
2022-10-28T04:25:44.585Z,80.78
2022-10-28T04:28:30.420Z,99.20
2022-10-28T04:31:16.073Z,80.13
2022-10-28T04:34:01.496Z,89.53
2022-10-28T04:36:47.408Z,78.45
2022-10-28T04:39:32.847Z,87.43
2022-10-28T04:42:18.508Z,77.50
2022-10-28T04:45:04.553Z,81.25
2022-10-28T04:47:49.898Z,77.80
2022-10-28T04:50:35.764Z,74.22
2022-10-28T04:53:29.362Z,76.30
2022-10-28T04:56:14.912Z,79.18
2022-10-28T04:59:00.939Z,74.90
2022-10-28T05:01:46.497Z,74.32
2022-10-28T05:04:32.019Z,86.82
2022-10-28T05:07:21.188Z,80.93
2022-10-28T05:10:09.397Z,84.82
2022-10-28T05:12:55.203Z,79.60
2022-10-28T05:15:40.970Z,88.32
2022-10-28T05:18:26.709Z,80.30
2022-10-28T05:21:12.235Z,80.90
2022-10-28T05:23:58.116Z,90.15
2022-10-28T05:26:43.949Z,91.35
2022-10-28T05:29:33.186Z,90.82
2022-10-28T05:32:19.094Z,88.15
2022-10-28T05:35:05.603Z,91.72
2022-10-28T05:37:51.264Z,81.55
2022-10-28T05:40:37.017Z,92.20
2022-10-28T05:43:22.939Z,87.72
2022-10-28T05:46:09.538Z,84.88
2022-10-28T05:48:55.081Z,80.18
2022-10-28T05:51:40.899Z,77.70
2022-10-28T05:54:26.769Z,85.88
2022-10-28T05:57:12.359Z,76.80
2022-10-28T05:59:58.130Z,79.07
2022-10-28T06:02:44.217Z,74.10
2022-10-28T06:05:29.956Z,69.30
2022-10-28T06:08:15.526Z,74.63
2022-10-28T06:11:02.355Z,67.18
2022-10-28T06:13:49.052Z,71.47
2022-10-28T06:16:34.720Z,77.93
2022-10-28T06:19:20.664Z,64.45
2022-10-28T06:22:05.966Z,75.03
2022-10-28T06:25:25.828Z,76.32
2022-10-28T06:28:11.624Z,67.85
2022-10-28T06:31:02.343Z,71.95
2022-10-28T06:34:22.217Z,69.95
2022-10-28T06:37:09.145Z,70.30
2022-10-28T06:39:54.855Z,65.45
2022-10-28T06:42:40.494Z,69.22
2022-10-28T06:45:31.062Z,69.10
2022-10-28T06:48:18.042Z,68.93
2022-10-28T06:51:03.854Z,68.10
2022-10-28T06:53:50.627Z,66.28
2022-10-28T06:56:36.664Z,76.20
2022-10-28T06:59:22.247Z,63.85
2022-10-28T07:02:09.874Z,65.57
2022-10-28T07:04:55.781Z,59.90
2022-10-28T07:07:41.430Z,64.55
2022-10-28T07:10:27.380Z,85.00
2022-10-28T07:13:13.264Z,63.80
2022-10-28T07:16:00.404Z,80.13
2022-10-28T07:18:46.391Z,57.08
2022-10-28T07:21:31.984Z,58.20
2022-10-28T07:24:17.812Z,73.03
2022-10-28T07:27:03.892Z,62.38
2022-10-28T07:29:49.323Z,70.45
2022-10-28T07:32:35.223Z,60.95
2022-10-28T07:35:20.928Z,58.78
2022-10-28T07:38:06.956Z,54.22
2022-10-28T07:40:52.718Z,57.03
2022-10-28T07:43:39.017Z,56.55
2022-10-28T07:46:24.721Z,56.35
2022-10-28T07:49:10.085Z,68.25
2022-10-28T07:51:55.761Z,49.83
2022-10-28T07:54:41.762Z,57.50
2022-10-28T07:57:27.390Z,63.80
2022-10-28T08:00:13.320Z,53.38
2022-10-28T08:02:58.996Z,61.95
2022-10-28T08:05:45.485Z,61.88
2022-10-28T08:08:31.471Z,63.63
2022-10-28T08:11:19.180Z,72.03
2022-10-28T08:14:04.520Z,67.10
2022-10-28T08:16:50.328Z,80.15
2022-10-28T08:19:36.023Z,83.13
2022-10-28T08:22:21.604Z,79.40
2022-10-28T08:25:07.869Z,69.45
2022-10-28T08:27:53.295Z,72.53
2022-10-28T08:31:03.963Z,67.57
2022-10-28T08:33:45.488Z,77.25
2022-10-28T08:36:32.047Z,64.75
2022-10-28T08:39:17.459Z,70.32
2022-10-28T08:42:22.635Z,75.00
2022-10-28T08:45:18.392Z,66.75
2022-10-28T08:48:07.178Z,60.00
2022-10-28T08:50:58.901Z,58.25
2022-10-28T08:53:58.445Z,63.53
2022-10-28T08:56:47.742Z,64.40
2022-10-28T08:59:40.327Z,54.97
2022-10-28T09:02:37.665Z,61.40
2022-10-28T09:05:26.050Z,67.57
2022-10-28T09:08:21.379Z,48.85
2022-10-28T09:11:13.219Z,42.20
2022-10-28T09:14:07.744Z,62.50
2022-10-28T09:17:08.591Z,47.53
2022-10-28T09:20:10.552Z,42.47
2022-10-28T09:23:05.633Z,42.25
2022-10-28T09:26:02.271Z,65.55
2022-10-28T09:29:15.515Z,46.47
2022-10-28T09:32:42.271Z,54.03
2022-10-28T09:35:33.929Z,73.10
2022-10-28T09:38:27.572Z,73.45
2022-10-28T09:41:33.609Z,57.90
2022-10-28T09:44:25.395Z,57.17
2022-10-28T09:47:41.499Z,61.83
2022-10-28T09:50:30.416Z,63.78
2022-10-28T09:53:31.452Z,64.35
2022-10-28T09:56:20.690Z,61.85
2022-10-28T09:59:07.968Z,63.88
2022-10-28T10:01:53.724Z,53.65
2022-10-28T10:04:39.441Z,50.65
2022-10-28T10:08:06.907Z,83.25
2022-10-28T10:11:05.413Z,71.82
2022-10-28T10:13:52.736Z,69.68
2022-10-28T10:16:41.287Z,69.45
2022-10-28T10:19:27.176Z,60.55
2022-10-28T10:22:33.216Z,73.05
2022-10-28T10:25:18.915Z,67.70
2022-10-28T10:28:14.845Z,57.35
2022-10-28T10:31:04.465Z,72.00
2022-10-28T10:33:53.010Z,76.65
2022-10-28T10:36:49.697Z,80.53
2022-10-28T10:39:37.610Z,83.88
2022-10-28T10:42:25.589Z,65.88
2022-10-28T10:45:18.976Z,79.72
2022-10-28T10:51:09.424Z,79.18
2022-10-28T10:54:00.928Z,79.68
2022-10-28T10:56:46.693Z,95.05
2022-10-28T10:59:34.844Z,84.60
2022-10-28T11:02:45.295Z,84.10
2022-10-28T11:05:37.759Z,91.25
2022-10-28T11:11:21.998Z,61.88
2022-10-28T11:14:10.447Z,88.88
2022-10-28T11:17:01.452Z,71.65
2022-10-28T11:19:46.951Z,89.30
2022-10-28T11:22:41.734Z,78.35
2022-10-28T11:25:36.546Z,86.20
2022-10-28T11:28:30.697Z,75.10
2022-10-28T11:31:39.955Z,80.22
2022-10-28T11:34:53.437Z,92.07
2022-10-28T11:37:51.927Z,87.00
2022-10-28T11:40:55.588Z,91.38
2022-10-28T11:43:55.098Z,80.03
2022-10-28T11:46:54.690Z,92.28
2022-10-28T11:50:04.842Z,83.45
2022-10-28T11:53:12.222Z,104.70
2022-10-28T11:56:20.398Z,100.63
2022-10-28T11:59:14.608Z,103.28
2022-10-28T12:02:43.108Z,99.13
2022-10-28T12:06:03.717Z,96.55
2022-10-28T12:09:24.046Z,100.00
2022-10-28T12:12:33.172Z,87.47
2022-10-28T12:15:39.158Z,75.13
2022-10-28T12:18:43.155Z,78.10
2022-10-28T12:21:39.631Z,88.65
2022-10-28T12:24:26.284Z,76.72
2022-10-28T12:27:41.239Z,94.88
2022-10-28T12:30:33.435Z,108.93
2022-10-28T12:33:37.917Z,89.93
2022-10-28T12:36:39.043Z,94.60
2022-10-28T12:40:03.182Z,99.85
2022-10-28T12:43:10.799Z,83.53
2022-10-28T12:45:56.944Z,84.70
2022-10-28T12:48:53.309Z,79.85
2022-10-28T12:51:40.979Z,73.15
2022-10-28T12:54:43.840Z,79.78
2022-10-28T12:57:34.515Z,96.70
2022-10-28T13:00:26.780Z,94.88
2022-10-28T13:03:14.445Z,83.88
2022-10-28T13:06:06.739Z,72.50
2022-10-28T13:09:19.456Z,76.22
2022-10-28T13:12:35.003Z,74.03
2022-10-28T13:15:38.179Z,82.10
2022-10-28T13:18:47.024Z,63.15
2022-10-28T13:21:51.253Z,78.20
2022-10-28T13:24:39.693Z,65.03
2022-10-28T13:27:25.941Z,65.40
2022-10-28T13:30:22.055Z,65.20
2022-10-28T13:33:15.746Z,63.15
2022-10-28T13:36:27.481Z,61.63
2022-10-28T13:39:45.603Z,56.13
2022-10-28T13:42:44.421Z,44.10
2022-10-28T13:45:54.220Z,41.42
2022-10-28T13:48:42.814Z,56.15
2022-10-28T13:51:33.450Z,51.28
2022-10-28T13:54:51.962Z,44.83
2022-10-28T13:57:39.392Z,61.53
2022-10-28T14:03:27.419Z,54.17
2022-10-28T14:06:31.620Z,43.78
2022-10-28T14:09:31.893Z,42.05
2022-10-28T14:12:23.515Z,41.08
2022-10-28T14:15:25.284Z,37.58
2022-10-28T14:18:37.347Z,29.63
2022-10-28T14:21:21.200Z,37.20
2022-10-28T14:24:30.018Z,36.28
2022-10-28T14:27:15.785Z,29.33
2022-10-28T14:30:02.021Z,38.15
2022-10-28T14:32:50.454Z,31.33
2022-10-28T14:35:42.823Z,54.80
2022-10-28T14:38:57.866Z,38.87
2022-10-28T14:42:21.881Z,35.67
2022-10-28T14:45:22.145Z,37.85
2022-10-28T14:48:57.226Z,47.85
2022-10-28T14:51:44.516Z,38.55
2022-10-28T14:54:40.554Z,34.47
2022-10-28T14:57:33.788Z,23.88
2022-10-28T15:00:23.407Z,23.20
2022-10-28T15:03:11.941Z,22.05
2022-10-28T15:06:02.441Z,30.65
2022-10-28T15:08:49.390Z,30.13
2022-10-28T15:11:35.633Z,28.05
2022-10-28T15:14:32.097Z,29.52
2022-10-28T15:17:39.359Z,28.35
2022-10-28T15:20:31.684Z,27.92
2022-10-28T15:23:20.660Z,25.35
2022-10-28T15:26:14.694Z,31.48
2022-10-28T15:29:02.011Z,32.47
2022-10-28T15:32:09.584Z,26.38
2022-10-28T15:34:55.840Z,28.83
2022-10-28T15:37:41.747Z,22.30
2022-10-28T15:40:34.443Z,31.67
2022-10-28T15:43:26.515Z,26.20
2022-10-28T15:46:16.452Z,25.75
2022-10-28T15:49:02.886Z,37.78
2022-10-28T15:52:29.602Z,40.90
2022-10-28T15:55:19.022Z,48.53
2022-10-28T15:58:13.769Z,42.50
2022-10-28T16:01:02.081Z,51.33
2022-10-28T16:03:48.124Z,55.30
2022-10-28T16:06:38.184Z,55.53
2022-10-28T16:09:32.327Z,54.08
2022-10-28T16:12:22.469Z,50.17
2022-10-28T16:15:14.676Z,54.03
2022-10-28T16:18:00.648Z,55.00
2022-10-28T16:20:46.269Z,60.00
2022-10-28T16:23:40.533Z,53.88
2022-10-28T16:26:26.758Z,49.45
2022-10-28T16:29:12.250Z,56.05
2022-10-28T16:31:57.892Z,52.97
2022-10-28T16:34:44.276Z,58.03
2022-10-28T16:37:32.635Z,56.00
2022-10-28T16:43:25.975Z,58.95
2022-10-28T16:46:13.188Z,63.22
2022-10-28T16:48:59.031Z,56.95
2022-10-28T16:51:45.371Z,60.88
2022-10-28T16:54:31.133Z,61.05
2022-10-28T16:57:18.328Z,56.50
2022-10-28T17:00:04.639Z,51.90
2022-10-28T17:02:50.915Z,51.25
2022-10-28T17:05:36.375Z,53.20
2022-10-28T17:08:42.240Z,65.90
2022-10-28T17:11:27.934Z,64.78
2022-10-28T17:14:13.539Z,60.95
2022-10-28T17:16:59.043Z,46.55
2022-10-28T17:19:46.511Z,58.85
2022-10-28T17:22:32.200Z,62.50
2022-10-28T17:25:17.855Z,56.30
2022-10-28T17:28:03.747Z,70.25
2022-10-28T17:30:49.213Z,59.50
2022-10-28T17:33:35.385Z,59.22
2022-10-28T17:36:23.054Z,64.95
2022-10-28T17:39:11.185Z,53.25
2022-10-28T17:42:01.100Z,57.47
2022-10-28T17:44:46.634Z,60.67
2022-10-28T17:47:35.596Z,55.70
2022-10-28T17:50:21.395Z,62.55
2022-10-28T17:53:06.840Z,60.58
2022-10-28T17:56:05.111Z,58.42
2022-10-28T17:58:53.630Z,57.45
2022-10-28T18:01:39.538Z,67.55
2022-10-28T18:04:26.488Z,73.90
2022-10-28T18:07:12.292Z,71.80
2022-10-28T18:09:58.057Z,72.78
2022-10-28T18:12:43.673Z,74.15
2022-10-28T18:15:29.442Z,64.40
2022-10-28T18:18:15.284Z,73.70
2022-10-28T18:21:01.044Z,66.82
2022-10-28T18:23:54.861Z,69.70
2022-10-28T18:26:41.270Z,57.47
2022-10-28T18:29:26.695Z,61.78
2022-10-28T18:32:12.432Z,67.75
2022-10-28T18:34:58.234Z,69.07
2022-10-28T18:37:43.911Z,62.22
2022-10-28T18:40:29.620Z,69.93
2022-10-28T18:43:15.347Z,63.47
2022-10-28T18:46:04.301Z,72.85
2022-10-28T18:48:50.101Z,62.30
2022-10-28T18:51:35.788Z,73.30
2022-10-28T18:54:21.873Z,74.53
2022-10-28T18:57:07.293Z,73.90
2022-10-28T19:00:17.399Z,64.55
2022-10-28T19:02:58.649Z,73.55
2022-10-28T19:05:43.927Z,72.18
2022-10-28T19:08:29.633Z,70.53
2022-10-28T19:11:15.308Z,71.50
2022-10-28T19:14:04.624Z,70.60
2022-10-28T19:16:49.952Z,73.88
2022-10-28T19:19:39.169Z,69.03
2022-10-28T19:22:25.571Z,67.57
2022-10-28T19:25:11.551Z,66.18
2022-10-28T19:27:59.592Z,71.85
2022-10-28T19:30:45.294Z,66.95
2022-10-28T19:33:31.633Z,68.28
2022-10-28T19:36:25.724Z,71.43
2022-10-28T19:39:11.204Z,70.15
2022-10-28T19:41:56.829Z,66.38
2022-10-28T19:44:42.401Z,80.25
2022-10-28T19:47:28.081Z,75.72
2022-10-28T19:50:13.992Z,73.53
2022-10-28T19:52:59.271Z,71.97
2022-10-28T19:55:44.969Z,67.43
2022-10-28T19:58:31.954Z,84.68
2022-10-28T20:01:18.306Z,68.60
2022-10-28T20:04:04.676Z,71.03
2022-10-28T20:06:50.060Z,78.13
2022-10-28T20:09:35.665Z,67.25
2022-10-28T20:12:23.921Z,66.50
2022-10-28T20:15:09.489Z,80.72
2022-10-28T20:17:55.145Z,66.60
2022-10-28T20:20:40.842Z,65.93
2022-10-28T20:23:26.454Z,72.65
2022-10-28T20:26:13.432Z,65.63
2022-10-28T20:28:59.620Z,79.13
2022-10-28T20:31:46.512Z,61.00
2022-10-28T20:34:33.447Z,73.57
2022-10-28T20:37:19.027Z,73.72
2022-10-28T20:40:07.514Z,70.88
2022-10-28T20:42:53.890Z,65.78
2022-10-28T20:45:39.867Z,69.38
2022-10-28T20:48:29.903Z,74.38
2022-10-28T20:51:16.070Z,63.35
2022-10-28T20:54:02.339Z,64.03
2022-10-28T20:56:48.025Z,78.47
2022-10-28T20:59:33.982Z,75.63
2022-10-28T21:02:19.791Z,79.25
2022-10-28T21:05:06.319Z,70.82
2022-10-28T21:07:52.044Z,74.75
2022-10-28T21:10:38.761Z,70.00
2022-10-28T21:13:24.590Z,80.38
2022-10-28T21:16:12.617Z,81.13
2022-10-28T21:18:59.411Z,76.93
2022-10-28T21:21:45.021Z,67.90
2022-10-28T21:24:30.659Z,79.53
2022-10-28T21:27:16.324Z,73.88
2022-10-28T21:30:02.168Z,73.40
2022-10-28T21:32:47.591Z,73.57
2022-10-28T21:35:33.125Z,75.65
2022-10-28T21:38:19.016Z,77.10
2022-10-28T21:41:09.648Z,85.30
2022-10-28T21:43:55.099Z,65.45
2022-10-28T21:46:40.841Z,74.32
2022-10-28T21:49:26.361Z,65.32
2022-10-28T21:52:12.645Z,75.82
2022-10-28T21:54:58.166Z,70.20
2022-10-28T21:57:43.755Z,68.15
2022-10-28T22:00:29.444Z,63.30
2022-10-28T22:03:15.452Z,70.78
2022-10-28T22:06:01.220Z,76.75
2022-10-28T22:08:47.586Z,69.57
2022-10-28T22:11:33.292Z,60.92
2022-10-28T22:14:19.274Z,71.00
2022-10-28T22:17:04.886Z,62.55
2022-10-28T22:19:52.325Z,52.92
2022-10-28T22:22:38.092Z,66.68
2022-10-28T22:25:23.775Z,65.45
2022-10-28T22:28:09.240Z,64.22
2022-10-28T22:31:02.400Z,75.82
2022-10-28T22:33:48.470Z,74.80
2022-10-28T22:36:34.408Z,67.00
2022-10-28T22:39:19.879Z,68.45
2022-10-28T22:42:05.652Z,56.15
2022-10-28T22:44:51.313Z,64.93
2022-10-28T22:47:36.838Z,67.32
2022-10-28T22:50:22.303Z,66.63
2022-10-28T22:53:08.049Z,68.72
2022-10-28T22:55:54.588Z,78.13
2022-10-28T22:58:40.108Z,71.28
2022-10-28T23:01:27.657Z,69.03
2022-10-28T23:04:13.608Z,59.00
2022-10-28T23:06:59.110Z,64.18
2022-10-28T23:09:44.815Z,62.67
2022-10-28T23:12:30.367Z,63.88
2022-10-28T23:15:16.050Z,64.40
2022-10-28T23:18:01.900Z,65.55
2022-10-28T23:20:47.415Z,66.32
2022-10-28T23:23:33.456Z,74.05
2022-10-28T23:26:18.992Z,64.88
2022-10-28T23:29:04.712Z,70.78
2022-10-28T23:31:50.315Z,72.57
2022-10-28T23:34:35.901Z,63.70
2022-10-28T23:37:21.667Z,64.63
2022-10-28T23:43:00.612Z,68.05
2022-10-28T23:45:46.169Z,63.08
2022-10-28T23:48:32.095Z,71.43
2022-10-28T23:51:19.288Z,56.80
2022-10-28T23:54:04.884Z,67.75
2022-10-28T23:56:50.362Z,59.85
2022-10-28T23:59:36.035Z,68.20
